sensor_id;sensor_type;location;lat;lon;timestamp;P1;durP1;ratioP1;P2;durP2;ratioP2
7969;SDS011;4030;52.362;9.206;2023-07-08T00:00:47;1.70;;;1.60;;
7969;SDS011;4030;52.362;9.206;2023-07-08T00:03:13;2.53;;;1.60;;
7969;SDS011;4030;52.362;9.206;2023-07-08T00:05:39;2.35;;;1.70;;
7969;SDS011;4030;52.362;9.206;2023-07-08T00:08:07;3.22;;;1.75;;
7969;SDS011;4030;52.362;9.206;2023-07-08T00:10:37;2.35;;;1.88;;
7969;SDS011;4030;52.362;9.206;2023-07-08T00:13:03;1.77;;;1.60;;
7969;SDS011;4030;52.362;9.206;2023-07-08T00:15:30;1.70;;;1.60;;
7969;SDS011;4030;52.362;9.206;2023-07-08T00:17:57;2.35;;;1.70;;
7969;SDS011;4030;52.362;9.206;2023-07-08T00:20:31;2.70;;;1.45;;
7969;SDS011;4030;52.362;9.206;2023-07-08T00:23:01;3.45;;;1.85;;
7969;SDS011;4030;52.362;9.206;2023-07-08T00:25:28;2.92;;;1.65;;
7969;SDS011;4030;52.362;9.206;2023-07-08T00:27:55;3.00;;;1.95;;
7969;SDS011;4030;52.362;9.206;2023-07-08T00:30:25;2.20;;;1.70;;
7969;SDS011;4030;52.362;9.206;2023-07-08T00:32:53;1.73;;;1.60;;
7969;SDS011;4030;52.362;9.206;2023-07-08T00:35:28;2.33;;;1.70;;
7969;SDS011;4030;52.362;9.206;2023-07-08T00:37:59;1.80;;;1.70;;
7969;SDS011;4030;52.362;9.206;2023-07-08T00:40:37;1.95;;;1.73;;
7969;SDS011;4030;52.362;9.206;2023-07-08T00:43:16;2.20;;;1.75;;
7969;SDS011;4030;52.362;9.206;2023-07-08T00:45:53;2.95;;;1.80;;
7969;SDS011;4030;52.362;9.206;2023-07-08T00:48:37;2.10;;;1.65;;
7969;SDS011;4030;52.362;9.206;2023-07-08T00:51:07;2.47;;;1.83;;
7969;SDS011;4030;52.362;9.206;2023-07-08T00:53:35;2.00;;;1.70;;
7969;SDS011;4030;52.362;9.206;2023-07-08T00:56:09;1.85;;;1.70;;
7969;SDS011;4030;52.362;9.206;2023-07-08T00:58:49;1.85;;;1.67;;
7969;SDS011;4030;52.362;9.206;2023-07-08T01:01:56;2.08;;;1.88;;
7969;SDS011;4030;52.362;9.206;2023-07-08T01:04:31;2.03;;;1.60;;
7969;SDS011;4030;52.362;9.206;2023-07-08T01:07:03;2.20;;;1.85;;
7969;SDS011;4030;52.362;9.206;2023-07-08T01:09:36;2.45;;;1.88;;
7969;SDS011;4030;52.362;9.206;2023-07-08T01:12:08;2.78;;;1.70;;
7969;SDS011;4030;52.362;9.206;2023-07-08T01:14:38;2.45;;;1.83;;
7969;SDS011;4030;52.362;9.206;2023-07-08T01:17:08;2.10;;;1.85;;
7969;SDS011;4030;52.362;9.206;2023-07-08T01:19:38;2.72;;;1.85;;
7969;SDS011;4030;52.362;9.206;2023-07-08T01:22:06;2.13;;;1.92;;
7969;SDS011;4030;52.362;9.206;2023-07-08T01:24:35;3.08;;;1.90;;
7969;SDS011;4030;52.362;9.206;2023-07-08T01:27:08;2.95;;;1.98;;
7969;SDS011;4030;52.362;9.206;2023-07-08T01:29:39;2.28;;;1.90;;
7969;SDS011;4030;52.362;9.206;2023-07-08T01:32:04;2.28;;;1.80;;
7969;SDS011;4030;52.362;9.206;2023-07-08T01:34:31;1.77;;;1.67;;
7969;SDS011;4030;52.362;9.206;2023-07-08T01:36:58;3.47;;;2.30;;
7969;SDS011;4030;52.362;9.206;2023-07-08T01:39:28;2.45;;;2.25;;
7969;SDS011;4030;52.362;9.206;2023-07-08T01:41:55;2.50;;;1.98;;
7969;SDS011;4030;52.362;9.206;2023-07-08T01:44:29;2.22;;;1.90;;
7969;SDS011;4030;52.362;9.206;2023-07-08T01:47:10;2.63;;;2.08;;
7969;SDS011;4030;52.362;9.206;2023-07-08T01:49:45;2.88;;;2.10;;
7969;SDS011;4030;52.362;9.206;2023-07-08T01:52:12;2.78;;;2.30;;
7969;SDS011;4030;52.362;9.206;2023-07-08T01:54:40;1.95;;;1.75;;
7969;SDS011;4030;52.362;9.206;2023-07-08T01:57:06;2.17;;;1.98;;
7969;SDS011;4030;52.362;9.206;2023-07-08T01:59:32;3.10;;;2.17;;
7969;SDS011;4030;52.362;9.206;2023-07-08T02:01:57;2.85;;;2.08;;
7969;SDS011;4030;52.362;9.206;2023-07-08T02:04:23;2.80;;;2.30;;
7969;SDS011;4030;52.362;9.206;2023-07-08T02:06:55;2.10;;;1.77;;
7969;SDS011;4030;52.362;9.206;2023-07-08T02:09:24;2.50;;;2.00;;
7969;SDS011;4030;52.362;9.206;2023-07-08T02:11:50;2.60;;;1.90;;
7969;SDS011;4030;52.362;9.206;2023-07-08T02:14:17;4.25;;;2.13;;
7969;SDS011;4030;52.362;9.206;2023-07-08T02:16:43;3.20;;;2.33;;
7969;SDS011;4030;52.362;9.206;2023-07-08T02:19:09;3.20;;;2.13;;
7969;SDS011;4030;52.362;9.206;2023-07-08T02:21:36;2.67;;;2.20;;
7969;SDS011;4030;52.362;9.206;2023-07-08T02:24:02;3.78;;;2.33;;
7969;SDS011;4030;52.362;9.206;2023-07-08T02:26:28;3.88;;;2.30;;
7969;SDS011;4030;52.362;9.206;2023-07-08T02:28:56;2.85;;;2.33;;
7969;SDS011;4030;52.362;9.206;2023-07-08T02:31:23;3.28;;;2.40;;
7969;SDS011;4030;52.362;9.206;2023-07-08T02:33:49;3.15;;;2.30;;
7969;SDS011;4030;52.362;9.206;2023-07-08T02:36:19;3.22;;;2.35;;
7969;SDS011;4030;52.362;9.206;2023-07-08T02:38:45;2.83;;;2.17;;
7969;SDS011;4030;52.362;9.206;2023-07-08T02:41:11;2.50;;;2.25;;
7969;SDS011;4030;52.362;9.206;2023-07-08T02:43:37;3.55;;;2.10;;
7969;SDS011;4030;52.362;9.206;2023-07-08T02:46:03;3.08;;;2.17;;
7969;SDS011;4030;52.362;9.206;2023-07-08T02:48:29;3.72;;;2.25;;
7969;SDS011;4030;52.362;9.206;2023-07-08T02:51:04;2.63;;;2.10;;
7969;SDS011;4030;52.362;9.206;2023-07-08T02:53:30;2.38;;;2.17;;
7969;SDS011;4030;52.362;9.206;2023-07-08T02:55:56;2.67;;;2.47;;
7969;SDS011;4030;52.362;9.206;2023-07-08T02:58:22;2.38;;;2.17;;
7969;SDS011;4030;52.362;9.206;2023-07-08T03:00:52;2.72;;;2.40;;
7969;SDS011;4030;52.362;9.206;2023-07-08T03:03:19;2.42;;;2.22;;
7969;SDS011;4030;52.362;9.206;2023-07-08T03:05:58;2.67;;;2.45;;
7969;SDS011;4030;52.362;9.206;2023-07-08T03:08:27;2.72;;;2.50;;
7969;SDS011;4030;52.362;9.206;2023-07-08T03:11:01;2.88;;;2.55;;
7969;SDS011;4030;52.362;9.206;2023-07-08T03:13:29;2.35;;;2.15;;
7969;SDS011;4030;52.362;9.206;2023-07-08T03:15:57;2.53;;;2.33;;
7969;SDS011;4030;52.362;9.206;2023-07-08T03:18:27;2.75;;;2.25;;
7969;SDS011;4030;52.362;9.206;2023-07-08T03:20:54;2.75;;;2.40;;
7969;SDS011;4030;52.362;9.206;2023-07-08T03:23:22;3.45;;;2.50;;
7969;SDS011;4030;52.362;9.206;2023-07-08T03:25:48;4.38;;;2.53;;
7969;SDS011;4030;52.362;9.206;2023-07-08T03:28:14;3.08;;;2.30;;
7969;SDS011;4030;52.362;9.206;2023-07-08T03:30:41;4.38;;;2.53;;
7969;SDS011;4030;52.362;9.206;2023-07-08T03:33:08;3.72;;;2.50;;
7969;SDS011;4030;52.362;9.206;2023-07-08T03:35:34;2.75;;;2.47;;
7969;SDS011;4030;52.362;9.206;2023-07-08T03:38:00;2.95;;;2.10;;
7969;SDS011;4030;52.362;9.206;2023-07-08T03:40:26;3.25;;;2.30;;
7969;SDS011;4030;52.362;9.206;2023-07-08T03:42:51;2.50;;;2.30;;
7969;SDS011;4030;52.362;9.206;2023-07-08T03:45:17;2.78;;;2.47;;
7969;SDS011;4030;52.362;9.206;2023-07-08T03:47:43;2.78;;;2.13;;
7969;SDS011;4030;52.362;9.206;2023-07-08T03:50:11;2.53;;;2.20;;
7969;SDS011;4030;52.362;9.206;2023-07-08T03:52:47;2.65;;;2.40;;
7969;SDS011;4030;52.362;9.206;2023-07-08T03:55:13;2.50;;;2.30;;
7969;SDS011;4030;52.362;9.206;2023-07-08T03:57:39;3.17;;;2.30;;
7969;SDS011;4030;52.362;9.206;2023-07-08T04:00:05;5.00;;;2.42;;
7969;SDS011;4030;52.362;9.206;2023-07-08T04:02:34;2.78;;;2.50;;
7969;SDS011;4030;52.362;9.206;2023-07-08T04:05:01;3.42;;;2.60;;
7969;SDS011;4030;52.362;9.206;2023-07-08T04:07:28;3.75;;;2.35;;
7969;SDS011;4030;52.362;9.206;2023-07-08T04:09:54;2.60;;;2.25;;
7969;SDS011;4030;52.362;9.206;2023-07-08T04:12:19;2.22;;;2.03;;
7969;SDS011;4030;52.362;9.206;2023-07-08T04:14:45;3.08;;;2.50;;
7969;SDS011;4030;52.362;9.206;2023-07-08T04:17:11;3.40;;;2.35;;
7969;SDS011;4030;52.362;9.206;2023-07-08T04:19:37;3.15;;;2.35;;
7969;SDS011;4030;52.362;9.206;2023-07-08T04:22:09;2.92;;;2.63;;
7969;SDS011;4030;52.362;9.206;2023-07-08T04:24:35;2.55;;;2.28;;
7969;SDS011;4030;52.362;9.206;2023-07-08T04:27:01;2.75;;;2.50;;
7969;SDS011;4030;52.362;9.206;2023-07-08T04:29:27;2.90;;;2.60;;
7969;SDS011;4030;52.362;9.206;2023-07-08T04:31:53;2.92;;;2.30;;
7969;SDS011;4030;52.362;9.206;2023-07-08T04:34:19;4.43;;;2.55;;
7969;SDS011;4030;52.362;9.206;2023-07-08T04:36:45;3.80;;;2.60;;
7969;SDS011;4030;52.362;9.206;2023-07-08T04:39:11;2.72;;;2.20;;
7969;SDS011;4030;52.362;9.206;2023-07-08T04:41:38;2.92;;;2.30;;
7969;SDS011;4030;52.362;9.206;2023-07-08T04:44:12;2.33;;;2.08;;
7969;SDS011;4030;52.362;9.206;2023-07-08T04:46:42;3.35;;;2.70;;
7969;SDS011;4030;52.362;9.206;2023-07-08T04:49:13;3.63;;;2.50;;
7969;SDS011;4030;52.362;9.206;2023-07-08T04:51:39;2.30;;;2.10;;
7969;SDS011;4030;52.362;9.206;2023-07-08T04:54:06;3.88;;;2.80;;
7969;SDS011;4030;52.362;9.206;2023-07-08T04:56:36;3.47;;;2.38;;
7969;SDS011;4030;52.362;9.206;2023-07-08T04:59:14;2.60;;;2.10;;
7969;SDS011;4030;52.362;9.206;2023-07-08T05:01:45;2.45;;;2.25;;
7969;SDS011;4030;52.362;9.206;2023-07-08T05:04:12;3.47;;;2.55;;
7969;SDS011;4030;52.362;9.206;2023-07-08T05:06:40;6.30;;;2.40;;
7969;SDS011;4030;52.362;9.206;2023-07-08T05:09:06;4.07;;;2.50;;
7969;SDS011;4030;52.362;9.206;2023-07-08T05:11:33;2.65;;;2.30;;
7969;SDS011;4030;52.362;9.206;2023-07-08T05:13:59;4.50;;;2.60;;
7969;SDS011;4030;52.362;9.206;2023-07-08T05:16:26;2.60;;;2.22;;
7969;SDS011;4030;52.362;9.206;2023-07-08T05:18:52;3.38;;;2.35;;
7969;SDS011;4030;52.362;9.206;2023-07-08T05:21:18;3.88;;;2.40;;
7969;SDS011;4030;52.362;9.206;2023-07-08T05:23:45;2.85;;;2.30;;
7969;SDS011;4030;52.362;9.206;2023-07-08T05:26:14;4.03;;;2.25;;
7969;SDS011;4030;52.362;9.206;2023-07-08T05:28:40;2.35;;;2.15;;
7969;SDS011;4030;52.362;9.206;2023-07-08T05:31:06;4.82;;;2.30;;
7969;SDS011;4030;52.362;9.206;2023-07-08T05:33:32;2.72;;;2.42;;
7969;SDS011;4030;52.362;9.206;2023-07-08T05:35:58;3.00;;;2.45;;
7969;SDS011;4030;52.362;9.206;2023-07-08T05:38:24;2.55;;;2.30;;
7969;SDS011;4030;52.362;9.206;2023-07-08T05:40:51;3.00;;;2.50;;
7969;SDS011;4030;52.362;9.206;2023-07-08T05:43:20;3.08;;;2.20;;
7969;SDS011;4030;52.362;9.206;2023-07-08T05:45:46;3.85;;;2.20;;
7969;SDS011;4030;52.362;9.206;2023-07-08T05:48:12;2.40;;;2.17;;
7969;SDS011;4030;52.362;9.206;2023-07-08T05:50:38;2.95;;;2.28;;
7969;SDS011;4030;52.362;9.206;2023-07-08T05:53:05;4.38;;;2.50;;
7969;SDS011;4030;52.362;9.206;2023-07-08T05:55:33;2.53;;;2.10;;
7969;SDS011;4030;52.362;9.206;2023-07-08T05:57:59;3.42;;;2.30;;
7969;SDS011;4030;52.362;9.206;2023-07-08T06:00:24;3.47;;;2.30;;
7969;SDS011;4030;52.362;9.206;2023-07-08T06:02:50;3.75;;;2.20;;
7969;SDS011;4030;52.362;9.206;2023-07-08T06:05:16;2.95;;;2.17;;
7969;SDS011;4030;52.362;9.206;2023-07-08T06:07:41;3.67;;;2.30;;
7969;SDS011;4030;52.362;9.206;2023-07-08T06:10:07;2.53;;;2.20;;
7969;SDS011;4030;52.362;9.206;2023-07-08T06:12:33;3.33;;;2.55;;
7969;SDS011;4030;52.362;9.206;2023-07-08T06:14:59;3.17;;;2.22;;
7969;SDS011;4030;52.362;9.206;2023-07-08T06:17:24;4.60;;;2.53;;
7969;SDS011;4030;52.362;9.206;2023-07-08T06:19:50;2.97;;;2.30;;
7969;SDS011;4030;52.362;9.206;2023-07-08T06:22:16;3.10;;;2.40;;
7969;SDS011;4030;52.362;9.206;2023-07-08T06:24:41;3.42;;;2.33;;
7969;SDS011;4030;52.362;9.206;2023-07-08T06:27:07;3.75;;;2.30;;
7969;SDS011;4030;52.362;9.206;2023-07-08T06:29:33;3.53;;;2.47;;
7969;SDS011;4030;52.362;9.206;2023-07-08T06:31:59;2.83;;;2.50;;
7969;SDS011;4030;52.362;9.206;2023-07-08T06:34:26;2.88;;;2.25;;
7969;SDS011;4030;52.362;9.206;2023-07-08T06:36:52;3.42;;;2.33;;
7969;SDS011;4030;52.362;9.206;2023-07-08T06:39:18;2.50;;;2.15;;
7969;SDS011;4030;52.362;9.206;2023-07-08T06:41:44;3.33;;;2.30;;
7969;SDS011;4030;52.362;9.206;2023-07-08T06:44:10;2.90;;;2.40;;
7969;SDS011;4030;52.362;9.206;2023-07-08T06:46:35;3.50;;;2.33;;
7969;SDS011;4030;52.362;9.206;2023-07-08T06:49:01;4.13;;;2.55;;
7969;SDS011;4030;52.362;9.206;2023-07-08T06:51:27;2.83;;;2.20;;
7969;SDS011;4030;52.362;9.206;2023-07-08T06:53:52;2.97;;;2.40;;
7969;SDS011;4030;52.362;9.206;2023-07-08T06:56:18;4.15;;;2.30;;
7969;SDS011;4030;52.362;9.206;2023-07-08T06:58:44;3.88;;;2.30;;
7969;SDS011;4030;52.362;9.206;2023-07-08T07:01:10;4.88;;;2.35;;
7969;SDS011;4030;52.362;9.206;2023-07-08T07:03:35;4.88;;;2.50;;
7969;SDS011;4030;52.362;9.206;2023-07-08T07:06:02;3.25;;;2.50;;
7969;SDS011;4030;52.362;9.206;2023-07-08T07:08:28;3.58;;;2.40;;
7969;SDS011;4030;52.362;9.206;2023-07-08T07:10:53;2.42;;;2.20;;
7969;SDS011;4030;52.362;9.206;2023-07-08T07:13:19;4.15;;;2.15;;
7969;SDS011;4030;52.362;9.206;2023-07-08T07:15:45;3.83;;;2.50;;
7969;SDS011;4030;52.362;9.206;2023-07-08T07:18:13;3.05;;;2.50;;
7969;SDS011;4030;52.362;9.206;2023-07-08T07:20:46;4.03;;;2.50;;
7969;SDS011;4030;52.362;9.206;2023-07-08T07:23:18;3.10;;;2.45;;
7969;SDS011;4030;52.362;9.206;2023-07-08T07:25:45;3.42;;;2.30;;
7969;SDS011;4030;52.362;9.206;2023-07-08T07:28:12;2.38;;;2.10;;
7969;SDS011;4030;52.362;9.206;2023-07-08T07:30:39;4.55;;;2.40;;
7969;SDS011;4030;52.362;9.206;2023-07-08T07:33:05;3.83;;;2.30;;
7969;SDS011;4030;52.362;9.206;2023-07-08T07:35:30;3.03;;;2.00;;
7969;SDS011;4030;52.362;9.206;2023-07-08T07:37:56;2.55;;;2.25;;
7969;SDS011;4030;52.362;9.206;2023-07-08T07:40:22;3.97;;;2.20;;
7969;SDS011;4030;52.362;9.206;2023-07-08T07:42:47;3.60;;;2.47;;
7969;SDS011;4030;52.362;9.206;2023-07-08T07:45:13;2.97;;;2.30;;
7969;SDS011;4030;52.362;9.206;2023-07-08T07:47:39;3.03;;;2.20;;
7969;SDS011;4030;52.362;9.206;2023-07-08T07:50:06;3.65;;;2.42;;
7969;SDS011;4030;52.362;9.206;2023-07-08T07:52:33;3.20;;;2.40;;
7969;SDS011;4030;52.362;9.206;2023-07-08T07:54:59;3.10;;;2.35;;
7969;SDS011;4030;52.362;9.206;2023-07-08T07:57:25;5.30;;;2.58;;
7969;SDS011;4030;52.362;9.206;2023-07-08T07:59:51;2.47;;;2.20;;
7969;SDS011;4030;52.362;9.206;2023-07-08T08:02:17;3.88;;;2.50;;
7969;SDS011;4030;52.362;9.206;2023-07-08T08:04:43;3.70;;;2.30;;
7969;SDS011;4030;52.362;9.206;2023-07-08T08:07:09;2.85;;;2.50;;
7969;SDS011;4030;52.362;9.206;2023-07-08T08:09:35;3.10;;;2.30;;
7969;SDS011;4030;52.362;9.206;2023-07-08T08:12:02;3.42;;;2.60;;
7969;SDS011;4030;52.362;9.206;2023-07-08T08:14:29;2.58;;;2.00;;
7969;SDS011;4030;52.362;9.206;2023-07-08T08:16:55;2.70;;;2.25;;
7969;SDS011;4030;52.362;9.206;2023-07-08T08:19:21;2.60;;;2.40;;
7969;SDS011;4030;52.362;9.206;2023-07-08T08:21:47;2.40;;;2.20;;
7969;SDS011;4030;52.362;9.206;2023-07-08T08:24:13;2.30;;;2.10;;
7969;SDS011;4030;52.362;9.206;2023-07-08T08:26:39;2.83;;;2.08;;
7969;SDS011;4030;52.362;9.206;2023-07-08T08:29:05;2.45;;;2.25;;
7969;SDS011;4030;52.362;9.206;2023-07-08T08:31:30;2.80;;;2.20;;
7969;SDS011;4030;52.362;9.206;2023-07-08T08:33:57;4.50;;;2.30;;
7969;SDS011;4030;52.362;9.206;2023-07-08T08:36:22;2.45;;;2.00;;
7969;SDS011;4030;52.362;9.206;2023-07-08T08:38:48;2.78;;;2.20;;
7969;SDS011;4030;52.362;9.206;2023-07-08T08:41:15;2.47;;;2.10;;
7969;SDS011;4030;52.362;9.206;2023-07-08T08:43:44;3.22;;;2.10;;
7969;SDS011;4030;52.362;9.206;2023-07-08T08:46:18;4.07;;;2.15;;
7969;SDS011;4030;52.362;9.206;2023-07-08T08:51:55;2.53;;;2.13;;
7969;SDS011;4030;52.362;9.206;2023-07-08T08:54:23;2.38;;;2.00;;
7969;SDS011;4030;52.362;9.206;2023-07-08T08:57:05;2.65;;;2.15;;
7969;SDS011;4030;52.362;9.206;2023-07-08T08:59:45;2.65;;;2.20;;
7969;SDS011;4030;52.362;9.206;2023-07-08T09:05:16;2.40;;;2.20;;
7969;SDS011;4030;52.362;9.206;2023-07-08T09:11:11;3.03;;;2.17;;
7969;SDS011;4030;52.362;9.206;2023-07-08T09:14:07;2.47;;;2.15;;
7969;SDS011;4030;52.362;9.206;2023-07-08T09:16:52;2.42;;;2.22;;
7969;SDS011;4030;52.362;9.206;2023-07-08T09:19:58;3.28;;;2.15;;
7969;SDS011;4030;52.362;9.206;2023-07-08T09:27:52;2.92;;;1.95;;
7969;SDS011;4030;52.362;9.206;2023-07-08T09:30:19;3.50;;;2.15;;
7969;SDS011;4030;52.362;9.206;2023-07-08T09:32:48;2.08;;;1.88;;
7969;SDS011;4030;52.362;9.206;2023-07-08T09:35:56;2.38;;;2.17;;
7969;SDS011;4030;52.362;9.206;2023-07-08T09:38:07;2.35;;;2.05;;
7969;SDS011;4030;52.362;9.206;2023-07-08T09:40:36;2.33;;;1.95;;
7969;SDS011;4030;52.362;9.206;2023-07-08T09:43:05;2.83;;;2.10;;
7969;SDS011;4030;52.362;9.206;2023-07-08T09:46:02;2.88;;;1.90;;
7969;SDS011;4030;52.362;9.206;2023-07-08T09:48:30;3.67;;;2.60;;
7969;SDS011;4030;52.362;9.206;2023-07-08T09:51:00;4.65;;;2.17;;
7969;SDS011;4030;52.362;9.206;2023-07-08T09:53:27;2.50;;;1.98;;
7969;SDS011;4030;52.362;9.206;2023-07-08T09:55:54;2.55;;;2.10;;
7969;SDS011;4030;52.362;9.206;2023-07-08T10:01:08;2.50;;;2.17;;
7969;SDS011;4030;52.362;9.206;2023-07-08T10:03:40;2.20;;;2.00;;
7969;SDS011;4030;52.362;9.206;2023-07-08T10:06:14;2.75;;;2.17;;
7969;SDS011;4030;52.362;9.206;2023-07-08T10:08:46;2.47;;;1.83;;
7969;SDS011;4030;52.362;9.206;2023-07-08T10:11:28;2.35;;;2.08;;
7969;SDS011;4030;52.362;9.206;2023-07-08T10:14:04;2.88;;;2.08;;
7969;SDS011;4030;52.362;9.206;2023-07-08T10:16:36;3.20;;;1.90;;
7969;SDS011;4030;52.362;9.206;2023-07-08T10:19:07;3.63;;;2.40;;
7969;SDS011;4030;52.362;9.206;2023-07-08T10:21:48;2.30;;;2.10;;
7969;SDS011;4030;52.362;9.206;2023-07-08T10:28:02;2.28;;;1.95;;
7969;SDS011;4030;52.362;9.206;2023-07-08T10:31:11;2.58;;;2.13;;
7969;SDS011;4030;52.362;9.206;2023-07-08T10:39:36;3.10;;;1.95;;
7969;SDS011;4030;52.362;9.206;2023-07-08T10:42:27;2.20;;;1.95;;
7969;SDS011;4030;52.362;9.206;2023-07-08T10:46:09;3.05;;;2.10;;
7969;SDS011;4030;52.362;9.206;2023-07-08T10:54:44;3.00;;;2.20;;
7969;SDS011;4030;52.362;9.206;2023-07-08T11:00:43;2.33;;;1.88;;
7969;SDS011;4030;52.362;9.206;2023-07-08T11:06:45;2.35;;;2.00;;
7969;SDS011;4030;52.362;9.206;2023-07-08T11:09:30;2.42;;;2.05;;
7969;SDS011;4030;52.362;9.206;2023-07-08T11:14:54;3.38;;;2.05;;
7969;SDS011;4030;52.362;9.206;2023-07-08T11:17:43;3.25;;;2.10;;
7969;SDS011;4030;52.362;9.206;2023-07-08T11:20:25;3.00;;;2.20;;
7969;SDS011;4030;52.362;9.206;2023-07-08T11:26:19;2.40;;;2.20;;
7969;SDS011;4030;52.362;9.206;2023-07-08T11:29:00;2.85;;;2.25;;
7969;SDS011;4030;52.362;9.206;2023-07-08T11:31:29;2.22;;;1.88;;
7969;SDS011;4030;52.362;9.206;2023-07-08T11:33:57;2.33;;;2.10;;
7969;SDS011;4030;52.362;9.206;2023-07-08T11:36:25;2.30;;;2.10;;
7969;SDS011;4030;52.362;9.206;2023-07-08T11:38:54;2.67;;;2.05;;
7969;SDS011;4030;52.362;9.206;2023-07-08T11:41:25;3.13;;;2.13;;
7969;SDS011;4030;52.362;9.206;2023-07-08T11:43:56;2.58;;;2.15;;
7969;SDS011;4030;52.362;9.206;2023-07-08T11:46:30;3.70;;;2.22;;
7969;SDS011;4030;52.362;9.206;2023-07-08T11:49:05;2.40;;;2.20;;
7969;SDS011;4030;52.362;9.206;2023-07-08T11:51:39;3.08;;;2.47;;
7969;SDS011;4030;52.362;9.206;2023-07-08T11:54:26;3.63;;;2.35;;
7969;SDS011;4030;52.362;9.206;2023-07-08T11:59:36;4.28;;;2.33;;
7969;SDS011;4030;52.362;9.206;2023-07-08T12:04:59;3.05;;;2.60;;
7969;SDS011;4030;52.362;9.206;2023-07-08T12:07:40;3.10;;;2.28;;
7969;SDS011;4030;52.362;9.206;2023-07-08T12:12:47;2.75;;;2.38;;
7969;SDS011;4030;52.362;9.206;2023-07-08T12:15:20;3.22;;;2.10;;
7969;SDS011;4030;52.362;9.206;2023-07-08T12:17:50;2.92;;;2.58;;
7969;SDS011;4030;52.362;9.206;2023-07-08T12:20:25;3.47;;;2.50;;
7969;SDS011;4030;52.362;9.206;2023-07-08T12:23:00;2.88;;;2.30;;
7969;SDS011;4030;52.362;9.206;2023-07-08T12:25:29;2.75;;;2.17;;
7969;SDS011;4030;52.362;9.206;2023-07-08T12:28:00;3.08;;;2.50;;
7969;SDS011;4030;52.362;9.206;2023-07-08T12:30:30;2.85;;;2.55;;
7969;SDS011;4030;52.362;9.206;2023-07-08T12:32:58;3.55;;;2.65;;
7969;SDS011;4030;52.362;9.206;2023-07-08T12:35:27;3.10;;;2.80;;
7969;SDS011;4030;52.362;9.206;2023-07-08T12:38:00;3.50;;;2.58;;
7969;SDS011;4030;52.362;9.206;2023-07-08T12:40:34;3.28;;;2.83;;
7969;SDS011;4030;52.362;9.206;2023-07-08T12:42:59;3.10;;;2.70;;
7969;SDS011;4030;52.362;9.206;2023-07-08T12:45:26;2.90;;;2.60;;
7969;SDS011;4030;52.362;9.206;2023-07-08T12:47:55;3.80;;;2.70;;
7969;SDS011;4030;52.362;9.206;2023-07-08T12:50:20;3.63;;;3.00;;
7969;SDS011;4030;52.362;9.206;2023-07-08T12:52:46;2.83;;;2.53;;
7969;SDS011;4030;52.362;9.206;2023-07-08T12:55:13;3.22;;;2.65;;
7969;SDS011;4030;52.362;9.206;2023-07-08T12:57:41;3.22;;;2.67;;
7969;SDS011;4030;52.362;9.206;2023-07-08T13:00:12;2.90;;;2.58;;
7969;SDS011;4030;52.362;9.206;2023-07-08T13:02:46;3.20;;;2.90;;
7969;SDS011;4030;52.362;9.206;2023-07-08T13:05:21;2.70;;;2.50;;
7969;SDS011;4030;52.362;9.206;2023-07-08T13:07:47;2.58;;;2.38;;
7969;SDS011;4030;52.362;9.206;2023-07-08T13:10:18;2.45;;;2.25;;
7969;SDS011;4030;52.362;9.206;2023-07-08T13:12:47;3.00;;;2.70;;
7969;SDS011;4030;52.362;9.206;2023-07-08T13:15:23;2.60;;;2.40;;
7969;SDS011;4030;52.362;9.206;2023-07-08T13:18:04;2.45;;;2.17;;
7969;SDS011;4030;52.362;9.206;2023-07-08T13:20:37;3.22;;;2.35;;
7969;SDS011;4030;52.362;9.206;2023-07-08T13:23:03;3.05;;;2.47;;
7969;SDS011;4030;52.362;9.206;2023-07-08T13:25:30;2.67;;;2.38;;
7969;SDS011;4030;52.362;9.206;2023-07-08T13:28:36;2.60;;;2.30;;
7969;SDS011;4030;52.362;9.206;2023-07-08T13:30:52;2.53;;;2.33;;
7969;SDS011;4030;52.362;9.206;2023-07-08T13:33:28;3.08;;;2.45;;
7969;SDS011;4030;52.362;9.206;2023-07-08T13:35:55;4.20;;;2.28;;
7969;SDS011;4030;52.362;9.206;2023-07-08T13:38:22;3.17;;;2.53;;
7969;SDS011;4030;52.362;9.206;2023-07-08T13:40:54;2.40;;;2.20;;
7969;SDS011;4030;52.362;9.206;2023-07-08T13:43:24;2.83;;;2.50;;
7969;SDS011;4030;52.362;9.206;2023-07-08T13:45:52;2.38;;;2.00;;
7969;SDS011;4030;52.362;9.206;2023-07-08T13:48:26;3.03;;;2.30;;
7969;SDS011;4030;52.362;9.206;2023-07-08T13:50:57;2.33;;;2.13;;
7969;SDS011;4030;52.362;9.206;2023-07-08T13:58:45;3.08;;;2.55;;
7969;SDS011;4030;52.362;9.206;2023-07-08T14:01:22;2.72;;;2.35;;
7969;SDS011;4030;52.362;9.206;2023-07-08T14:03:50;2.85;;;2.42;;
7969;SDS011;4030;52.362;9.206;2023-07-08T14:06:20;2.40;;;2.20;;
7969;SDS011;4030;52.362;9.206;2023-07-08T14:08:53;3.08;;;2.55;;
7969;SDS011;4030;52.362;9.206;2023-07-08T14:11:23;2.88;;;2.55;;
7969;SDS011;4030;52.362;9.206;2023-07-08T14:13:49;3.03;;;2.67;;
7969;SDS011;4030;52.362;9.206;2023-07-08T14:16:25;4.60;;;2.65;;
7969;SDS011;4030;52.362;9.206;2023-07-08T14:18:57;2.88;;;2.67;;
7969;SDS011;4030;52.362;9.206;2023-07-08T14:21:26;2.72;;;2.53;;
7969;SDS011;4030;52.362;9.206;2023-07-08T14:23:52;2.63;;;2.42;;
7969;SDS011;4030;52.362;9.206;2023-07-08T14:26:18;3.63;;;2.50;;
7969;SDS011;4030;52.362;9.206;2023-07-08T14:28:44;2.53;;;2.30;;
7969;SDS011;4030;52.362;9.206;2023-07-08T14:31:10;3.10;;;2.80;;
7969;SDS011;4030;52.362;9.206;2023-07-08T14:33:38;2.90;;;2.70;;
7969;SDS011;4030;52.362;9.206;2023-07-08T14:36:10;2.70;;;2.50;;
7969;SDS011;4030;52.362;9.206;2023-07-08T14:38:36;4.28;;;2.80;;
7969;SDS011;4030;52.362;9.206;2023-07-08T14:41:02;3.28;;;2.80;;
7969;SDS011;4030;52.362;9.206;2023-07-08T14:43:29;3.40;;;2.75;;
7969;SDS011;4030;52.362;9.206;2023-07-08T14:45:58;2.88;;;2.50;;
7969;SDS011;4030;52.362;9.206;2023-07-08T14:48:30;2.83;;;2.53;;
7969;SDS011;4030;52.362;9.206;2023-07-08T14:50:57;3.15;;;2.85;;
7969;SDS011;4030;52.362;9.206;2023-07-08T14:53:23;2.75;;;2.35;;
7969;SDS011;4030;52.362;9.206;2023-07-08T14:55:51;3.50;;;2.90;;
7969;SDS011;4030;52.362;9.206;2023-07-08T14:58:30;3.00;;;2.70;;
7969;SDS011;4030;52.362;9.206;2023-07-08T15:00:59;3.25;;;2.95;;
7969;SDS011;4030;52.362;9.206;2023-07-08T15:03:27;3.00;;;2.70;;
7969;SDS011;4030;52.362;9.206;2023-07-08T15:05:53;3.22;;;2.65;;
7969;SDS011;4030;52.362;9.206;2023-07-08T15:08:19;3.67;;;2.75;;
7969;SDS011;4030;52.362;9.206;2023-07-08T15:10:49;2.78;;;2.58;;
7969;SDS011;4030;52.362;9.206;2023-07-08T15:13:17;4.15;;;2.83;;
7969;SDS011;4030;52.362;9.206;2023-07-08T15:15:46;3.40;;;2.90;;
7969;SDS011;4030;52.362;9.206;2023-07-08T15:18:13;3.60;;;2.92;;
7969;SDS011;4030;52.362;9.206;2023-07-08T15:20:44;3.10;;;2.80;;
7969;SDS011;4030;52.362;9.206;2023-07-08T15:23:10;4.25;;;2.78;;
7969;SDS011;4030;52.362;9.206;2023-07-08T15:25:37;3.25;;;2.95;;
7969;SDS011;4030;52.362;9.206;2023-07-08T15:28:10;3.17;;;2.92;;
7969;SDS011;4030;52.362;9.206;2023-07-08T15:31:08;3.25;;;2.50;;
7969;SDS011;4030;52.362;9.206;2023-07-08T15:33:36;3.65;;;2.70;;
7969;SDS011;4030;52.362;9.206;2023-07-08T15:36:01;3.03;;;2.72;;
7969;SDS011;4030;52.362;9.206;2023-07-08T15:38:27;3.20;;;2.90;;
7969;SDS011;4030;52.362;9.206;2023-07-08T15:40:53;3.28;;;2.63;;
7969;SDS011;4030;52.362;9.206;2023-07-08T15:43:18;3.53;;;2.80;;
7969;SDS011;4030;52.362;9.206;2023-07-08T15:45:44;3.35;;;3.05;;
7969;SDS011;4030;52.362;9.206;2023-07-08T15:48:12;2.92;;;2.63;;
7969;SDS011;4030;52.362;9.206;2023-07-08T15:50:41;3.10;;;2.80;;
7969;SDS011;4030;52.362;9.206;2023-07-08T15:53:08;3.97;;;2.70;;
7969;SDS011;4030;52.362;9.206;2023-07-08T15:55:34;3.28;;;2.97;;
7969;SDS011;4030;52.362;9.206;2023-07-08T15:58:07;3.08;;;2.78;;
7969;SDS011;4030;52.362;9.206;2023-07-08T16:00:39;3.25;;;2.88;;
7969;SDS011;4030;52.362;9.206;2023-07-08T16:03:26;3.22;;;2.92;;
7969;SDS011;4030;52.362;9.206;2023-07-08T16:05:55;3.08;;;2.78;;
7969;SDS011;4030;52.362;9.206;2023-07-08T16:08:22;3.05;;;2.75;;
7969;SDS011;4030;52.362;9.206;2023-07-08T16:10:52;3.50;;;2.97;;
7969;SDS011;4030;52.362;9.206;2023-07-08T16:13:23;3.17;;;2.90;;
7969;SDS011;4030;52.362;9.206;2023-07-08T16:15:54;2.85;;;2.65;;
7969;SDS011;4030;52.362;9.206;2023-07-08T16:18:20;2.80;;;2.53;;
7969;SDS011;4030;52.362;9.206;2023-07-08T16:20:46;4.25;;;2.90;;
7969;SDS011;4030;52.362;9.206;2023-07-08T16:23:12;3.28;;;2.97;;
7969;SDS011;4030;52.362;9.206;2023-07-08T16:25:39;3.17;;;2.78;;
7969;SDS011;4030;52.362;9.206;2023-07-08T16:28:15;3.38;;;2.90;;
7969;SDS011;4030;52.362;9.206;2023-07-08T16:30:55;3.85;;;2.83;;